createdAt,value
2022-11-11T00:00:58.897Z,4.62
2022-11-11T00:03:25.521Z,4.61
2022-11-11T00:05:51.876Z,4.63
2022-11-11T00:08:18.313Z,4.56
2022-11-11T00:10:44.688Z,4.43
2022-11-11T00:13:11.031Z,4.28
2022-11-11T00:15:38.926Z,4.35
2022-11-11T00:18:24.718Z,4.29
2022-11-11T00:21:10.221Z,4.27
2022-11-11T00:23:55.300Z,4.26
2022-11-11T00:29:08.365Z,3.84
2022-11-11T00:31:57.945Z,3.73
2022-11-11T00:34:24.346Z,3.81
2022-11-11T00:36:50.745Z,3.87
2022-11-11T00:39:17.170Z,4.08
2022-11-11T00:41:43.550Z,4.09
2022-11-11T00:44:09.881Z,4.23
2022-11-11T00:46:55.194Z,4.15
2022-11-11T00:49:40.335Z,4.16
2022-11-11T00:52:06.774Z,4.06
2022-11-11T00:54:33.092Z,4.05
2022-11-11T00:56:59.531Z,4.09
2022-11-11T00:59:25.988Z,3.94
2022-11-11T01:01:52.346Z,3.94
2022-11-11T01:04:18.724Z,4.04
2022-11-11T01:06:45.130Z,4.16
2022-11-11T01:09:11.482Z,4.06
2022-11-11T01:11:37.938Z,4.11
2022-11-11T01:14:04.397Z,3.88
2022-11-11T01:16:30.783Z,3.89
2022-11-11T01:18:57.153Z,4.02
2022-11-11T01:21:24.624Z,4.02
2022-11-11T01:23:52.409Z,4.06
2022-11-11T01:26:27.659Z,4.02
2022-11-11T01:28:57.698Z,4.04
2022-11-11T01:31:25.521Z,4.10
2022-11-11T01:33:52.005Z,3.88
2022-11-11T01:36:23.065Z,3.96
2022-11-11T01:38:53.811Z,3.76
2022-11-11T01:41:34.919Z,3.81
2022-11-11T01:44:02.852Z,3.93
2022-11-11T01:46:36.663Z,4.05
2022-11-11T01:49:21.417Z,3.96
2022-11-11T01:51:59.878Z,3.93
2022-11-11T01:54:38.179Z,3.63
2022-11-11T01:57:08.675Z,3.62
2022-11-11T01:59:37.500Z,3.87
2022-11-11T02:02:08.956Z,3.99
2022-11-11T02:04:55.541Z,3.67
2022-11-11T02:07:22.802Z,3.76
2022-11-11T02:09:51.430Z,3.81
2022-11-11T02:12:36.375Z,3.71
2022-11-11T02:15:02.867Z,3.94
2022-11-11T02:17:30.931Z,3.79
2022-11-11T02:20:01.940Z,3.84
2022-11-11T02:22:47.383Z,3.81
2022-11-11T02:25:17.334Z,3.96
2022-11-11T02:27:46.091Z,3.97
2022-11-11T02:30:16.756Z,3.92
2022-11-11T02:32:44.041Z,4.06
2022-11-11T02:35:15.848Z,3.88
2022-11-11T02:37:44.675Z,3.88
2022-11-11T02:40:12.856Z,3.72
2022-11-11T02:42:39.417Z,3.60
2022-11-11T02:45:06.042Z,3.56
2022-11-11T02:47:32.417Z,3.72
2022-11-11T02:49:58.876Z,3.59
2022-11-11T02:52:25.938Z,3.46
2022-11-11T02:54:52.378Z,3.53
2022-11-11T02:57:20.759Z,3.60
2022-11-11T02:59:47.167Z,3.66
2022-11-11T03:02:13.889Z,3.50
2022-11-11T03:04:40.646Z,3.75
2022-11-11T03:07:07.682Z,3.98
2022-11-11T03:09:34.284Z,3.99
2022-11-11T03:12:01.186Z,3.91
2022-11-11T03:14:27.748Z,3.95
2022-11-11T03:17:13.192Z,3.90
2022-11-11T03:19:39.771Z,3.99
2022-11-11T03:25:10.973Z,3.94
2022-11-11T03:27:37.293Z,3.99
2022-11-11T03:30:03.751Z,3.99
2022-11-11T03:32:30.049Z,3.79
2022-11-11T03:34:56.416Z,4.04
2022-11-11T03:37:41.158Z,4.24
2022-11-11T03:40:08.163Z,4.22
2022-11-11T03:42:34.509Z,4.11
2022-11-11T03:45:00.811Z,4.25
2022-11-11T03:47:27.253Z,4.33
2022-11-11T03:49:53.642Z,4.24
2022-11-11T03:52:19.957Z,3.98
2022-11-11T03:54:46.291Z,3.92
2022-11-11T03:57:30.788Z,3.81
2022-11-11T03:59:57.174Z,3.64
2022-11-11T04:02:42.293Z,3.70
2022-11-11T04:05:27.683Z,3.97
2022-11-11T04:08:12.765Z,4.15
2022-11-11T04:10:39.148Z,4.03
2022-11-11T04:13:24.218Z,3.90
2022-11-11T04:16:09.242Z,4.05
2022-11-11T04:18:54.453Z,3.74
2022-11-11T04:21:40.021Z,3.96
2022-11-11T04:24:25.369Z,3.66
2022-11-11T04:26:53.296Z,3.65
2022-11-11T04:29:28.443Z,3.97
2022-11-11T04:32:17.538Z,3.97
2022-11-11T04:34:45.111Z,4.01
2022-11-11T04:37:11.557Z,3.99
2022-11-11T04:39:56.748Z,3.71
2022-11-11T04:42:23.391Z,3.96
2022-11-11T04:45:08.574Z,3.98
2022-11-11T04:47:35.160Z,4.06
2022-11-11T04:50:06.747Z,4.10
2022-11-11T04:52:33.842Z,4.18
2022-11-11T04:55:21.863Z,3.93
2022-11-11T04:57:48.795Z,3.97
2022-11-11T05:00:16.936Z,3.94
2022-11-11T05:03:02.012Z,4.15
2022-11-11T05:05:28.962Z,4.05
2022-11-11T05:08:14.075Z,3.97
2022-11-11T05:10:40.643Z,3.89
2022-11-11T05:13:25.904Z,4.11
2022-11-11T05:16:11.195Z,4.15
2022-11-11T05:18:56.204Z,4.28
2022-11-11T05:21:25.573Z,4.26
2022-11-11T05:24:10.874Z,4.27
2022-11-11T05:26:37.266Z,4.33
2022-11-11T05:29:03.678Z,4.23
2022-11-11T05:31:30.540Z,4.32
2022-11-11T05:33:56.927Z,4.24
2022-11-11T05:36:23.544Z,4.27
2022-11-11T05:38:49.852Z,4.33
2022-11-11T05:41:16.225Z,4.22
2022-11-11T05:43:42.547Z,4.35
2022-11-11T05:46:08.858Z,4.30
2022-11-11T05:48:35.363Z,4.32
2022-11-11T05:51:01.762Z,4.43
2022-11-11T05:53:28.442Z,4.43
2022-11-11T05:55:54.802Z,4.25
2022-11-11T05:58:21.141Z,3.85
2022-11-11T06:00:47.859Z,3.83
2022-11-11T06:03:14.172Z,4.22
2022-11-11T06:05:40.527Z,4.27
2022-11-11T06:08:06.865Z,4.36
2022-11-11T06:10:33.312Z,4.16
2022-11-11T06:13:04.856Z,4.04
2022-11-11T06:15:32.937Z,3.88
2022-11-11T06:17:59.256Z,3.58
2022-11-11T06:20:26.226Z,3.56
2022-11-11T06:22:58.622Z,3.70
2022-11-11T06:25:44.867Z,3.91
2022-11-11T06:28:11.738Z,3.94
2022-11-11T06:30:49.491Z,3.76
2022-11-11T06:33:17.233Z,3.68
2022-11-11T06:35:43.802Z,3.74
2022-11-11T06:38:10.162Z,3.79
2022-11-11T06:40:36.610Z,3.87
2022-11-11T06:43:02.963Z,3.98
2022-11-11T06:45:30.322Z,3.94
2022-11-11T06:47:56.786Z,3.79
2022-11-11T06:50:23.167Z,3.97
2022-11-11T06:52:49.529Z,3.97
2022-11-11T06:55:15.923Z,3.67
2022-11-11T06:57:42.941Z,4.02
2022-11-11T07:00:09.630Z,3.96
2022-11-11T07:02:36.073Z,4.00
2022-11-11T07:05:02.475Z,3.90
2022-11-11T07:07:28.862Z,3.85
2022-11-11T07:09:55.744Z,3.77
2022-11-11T07:12:22.631Z,3.99
2022-11-11T07:14:48.930Z,3.85
2022-11-11T07:17:15.306Z,4.12
2022-11-11T07:19:41.694Z,4.34
2022-11-11T07:22:08.058Z,4.22
2022-11-11T07:24:34.377Z,4.25
2022-11-11T07:27:02.101Z,4.22
2022-11-11T07:29:29.205Z,4.35
2022-11-11T07:31:55.658Z,4.34
2022-11-11T07:34:22.066Z,4.49
2022-11-11T07:36:48.385Z,4.55
2022-11-11T07:39:14.779Z,4.58
2022-11-11T07:41:41.404Z,4.64
2022-11-11T07:44:07.712Z,4.80
2022-11-11T07:46:34.117Z,4.95
2022-11-11T07:49:00.597Z,4.99
2022-11-11T07:51:27.036Z,5.16
2022-11-11T07:53:53.446Z,5.08
2022-11-11T07:56:19.782Z,4.86
2022-11-11T07:58:46.291Z,4.80
2022-11-11T08:01:12.830Z,4.83
2022-11-11T08:03:52.834Z,4.88
2022-11-11T08:06:19.946Z,4.87
2022-11-11T08:08:46.650Z,4.83
2022-11-11T08:11:13.436Z,4.68
2022-11-11T08:13:43.517Z,4.96
2022-11-11T08:16:14.781Z,5.12
2022-11-11T08:18:41.687Z,5.17
2022-11-11T08:21:09.088Z,5.33
2022-11-11T08:24:15.603Z,5.30
2022-11-11T08:26:28.960Z,5.26
2022-11-11T08:28:56.426Z,5.33
2022-11-11T08:31:22.754Z,5.52
2022-11-11T08:33:49.762Z,5.64
2022-11-11T08:36:20.786Z,5.29
2022-11-11T08:38:47.923Z,5.36
2022-11-11T08:41:14.535Z,5.57
2022-11-11T08:43:41.439Z,5.35
2022-11-11T08:46:07.959Z,5.60
2022-11-11T08:48:34.538Z,5.40
2022-11-11T08:51:01.421Z,5.47
2022-11-11T08:53:28.262Z,5.87
2022-11-11T08:55:55.005Z,5.88
2022-11-11T08:58:21.320Z,5.77
2022-11-11T09:00:47.898Z,5.94
2022-11-11T09:03:14.684Z,5.84
2022-11-11T09:05:41.430Z,5.60
2022-11-11T09:08:08.666Z,5.86
2022-11-11T09:10:36.083Z,5.85
2022-11-11T09:13:02.822Z,5.94
2022-11-11T09:15:29.543Z,6.12
2022-11-11T09:17:56.143Z,6.20
2022-11-11T09:20:25.214Z,6.30
2022-11-11T09:22:53.049Z,6.20
2022-11-11T09:25:20.150Z,6.27
2022-11-11T09:27:56.576Z,6.29
2022-11-11T09:30:23.090Z,6.27
2022-11-11T09:32:49.556Z,6.41
2022-11-11T09:35:15.939Z,6.35
2022-11-11T09:37:42.565Z,6.33
2022-11-11T09:40:17.932Z,6.47
2022-11-11T09:42:48.965Z,6.43
2022-11-11T09:45:30.591Z,6.41
2022-11-11T09:48:10.045Z,6.17
2022-11-11T09:50:39.459Z,6.36
2022-11-11T09:53:18.135Z,6.64
2022-11-11T09:56:17.573Z,6.77
2022-11-11T09:58:57.819Z,6.76
2022-11-11T10:01:29.373Z,6.71
2022-11-11T10:04:16.070Z,6.67
2022-11-11T10:06:43.559Z,6.73
2022-11-11T10:09:23.305Z,6.57
2022-11-11T10:12:11.259Z,6.55
2022-11-11T10:14:42.502Z,6.57
2022-11-11T10:17:15.552Z,6.63
2022-11-11T10:19:54.218Z,6.70
2022-11-11T10:22:22.117Z,6.69
2022-11-11T10:25:02.160Z,6.81
2022-11-11T10:27:29.143Z,6.97
2022-11-11T10:29:56.103Z,6.94
2022-11-11T10:32:27.649Z,6.88
2022-11-11T10:34:57.773Z,6.95
2022-11-11T10:37:42.851Z,6.91
2022-11-11T10:40:23.781Z,6.87
2022-11-11T10:42:50.559Z,7.01
2022-11-11T10:45:29.930Z,7.28
2022-11-11T10:47:56.486Z,7.35
2022-11-11T10:50:35.753Z,7.49
2022-11-11T10:53:13.320Z,7.48
2022-11-11T10:55:42.707Z,7.47
2022-11-11T10:58:12.277Z,7.61
2022-11-11T11:00:44.084Z,7.69
2022-11-11T11:03:17.056Z,7.49
2022-11-11T11:05:46.317Z,7.58
2022-11-11T11:08:16.342Z,7.70
2022-11-11T11:10:47.352Z,7.83
2022-11-11T11:13:16.728Z,7.82
2022-11-11T11:15:49.246Z,7.85
2022-11-11T11:18:17.029Z,7.87
2022-11-11T11:21:03.153Z,7.88
2022-11-11T11:23:40.024Z,7.82
2022-11-11T11:26:06.870Z,7.66
2022-11-11T11:28:34.516Z,7.80
2022-11-11T11:31:07.714Z,7.73
2022-11-11T11:33:51.254Z,7.69
2022-11-11T11:36:17.834Z,7.60
2022-11-11T11:38:47.471Z,7.62
2022-11-11T11:41:13.923Z,7.60
2022-11-11T11:43:42.867Z,7.69
2022-11-11T11:46:18.382Z,7.79
2022-11-11T11:48:50.688Z,7.68
2022-11-11T11:51:32.277Z,7.79
2022-11-11T11:54:13.213Z,7.71
2022-11-11T11:56:41.818Z,7.77
2022-11-11T11:59:22.757Z,7.60
2022-11-11T12:01:59.368Z,7.89
2022-11-11T12:04:44.802Z,7.83
2022-11-11T12:07:16.932Z,7.74
2022-11-11T12:09:51.250Z,7.93
2022-11-11T12:12:37.154Z,7.99
2022-11-11T12:15:03.530Z,7.91
2022-11-11T12:17:33.152Z,8.00
2022-11-11T12:20:11.853Z,7.93
2022-11-11T12:22:49.291Z,8.14
2022-11-11T12:25:15.774Z,8.11
2022-11-11T12:27:48.483Z,8.26
2022-11-11T12:30:18.704Z,8.33
2022-11-11T12:33:05.797Z,8.52
2022-11-11T12:35:32.215Z,8.61
2022-11-11T12:38:01.459Z,8.64
2022-11-11T12:40:27.900Z,8.69
2022-11-11T12:43:13.290Z,8.63
2022-11-11T12:45:47.316Z,8.76
2022-11-11T12:48:25.260Z,8.83
2022-11-11T12:51:07.333Z,8.83
2022-11-11T12:53:36.969Z,8.78
2022-11-11T12:56:24.113Z,8.80
2022-11-11T12:58:59.467Z,8.84
2022-11-11T13:01:37.993Z,8.85
2022-11-11T13:04:19.407Z,8.91
2022-11-11T13:06:45.806Z,8.97
2022-11-11T13:09:24.263Z,8.91
2022-11-11T13:12:01.422Z,8.96
2022-11-11T13:14:33.936Z,8.97
2022-11-11T13:17:01.577Z,8.90
2022-11-11T13:19:27.889Z,9.11
2022-11-11T13:22:02.789Z,9.05
2022-11-11T13:24:32.113Z,9.00
2022-11-11T13:27:04.947Z,8.87
2022-11-11T13:29:49.806Z,8.88
2022-11-11T13:32:17.689Z,8.81
2022-11-11T13:34:44.415Z,8.82
2022-11-11T13:37:20.160Z,8.92
2022-11-11T13:39:47.996Z,8.87
2022-11-11T13:42:21.002Z,8.71
2022-11-11T13:44:47.329Z,8.87
2022-11-11T13:47:18.763Z,8.68
2022-11-11T13:49:59.404Z,8.61
2022-11-11T13:52:31.838Z,8.78
2022-11-11T13:55:06.239Z,8.76
2022-11-11T13:57:34.564Z,8.77
2022-11-11T14:00:04.416Z,8.65
2022-11-11T14:02:31.989Z,8.62
2022-11-11T14:05:10.571Z,8.67
2022-11-11T14:07:49.015Z,8.68
2022-11-11T14:10:18.198Z,8.45
2022-11-11T14:12:46.873Z,8.56
2022-11-11T14:15:32.244Z,8.50
2022-11-11T14:17:58.545Z,8.54
2022-11-11T14:20:45.174Z,8.57
2022-11-11T14:23:24.150Z,8.56
2022-11-11T14:25:52.258Z,8.66
2022-11-11T14:28:28.313Z,8.65
2022-11-11T14:30:56.075Z,8.52
2022-11-11T14:33:34.420Z,8.60
2022-11-11T14:36:19.717Z,8.78
2022-11-11T14:39:06.427Z,8.83
2022-11-11T14:41:45.139Z,8.98
2022-11-11T14:44:29.603Z,8.97
2022-11-11T14:47:02.130Z,8.86
2022-11-11T14:49:43.567Z,8.65
2022-11-11T14:52:28.648Z,8.57
2022-11-11T14:55:03.930Z,8.59
2022-11-11T14:57:50.871Z,8.69
2022-11-11T15:00:22.176Z,8.55
2022-11-11T15:02:51.726Z,8.64
2022-11-11T15:05:21.368Z,8.71
2022-11-11T15:08:03.717Z,8.60
2022-11-11T15:10:39.271Z,8.56
2022-11-11T15:13:05.710Z,8.34
2022-11-11T15:15:32.035Z,8.52
2022-11-11T15:18:04.737Z,8.49
2022-11-11T15:20:39.463Z,8.56
2022-11-11T15:23:15.990Z,8.41
2022-11-11T15:25:52.880Z,8.46
2022-11-11T15:28:34.520Z,8.60
2022-11-11T15:31:07.077Z,8.59
2022-11-11T15:33:33.413Z,8.53
2022-11-11T15:36:11.233Z,8.57
2022-11-11T15:38:38.248Z,8.45
2022-11-11T15:41:04.691Z,8.44
2022-11-11T15:43:32.271Z,8.40
2022-11-11T15:46:02.955Z,8.27
2022-11-11T15:48:41.117Z,8.30
2022-11-11T15:51:17.845Z,8.28
2022-11-11T15:53:44.860Z,8.07
2022-11-11T15:56:11.873Z,7.90
2022-11-11T15:58:39.321Z,8.07
2022-11-11T16:01:07.372Z,8.28
2022-11-11T16:03:40.045Z,8.30
2022-11-11T16:06:16.254Z,8.28
2022-11-11T16:08:44.136Z,8.47
2022-11-11T16:11:13.087Z,8.48
2022-11-11T16:13:42.643Z,8.30
2022-11-11T16:16:11.513Z,8.27
2022-11-11T16:18:56.369Z,8.23
2022-11-11T16:21:28.458Z,7.91
2022-11-11T16:23:55.362Z,8.01
2022-11-11T16:26:21.935Z,8.16
2022-11-11T16:28:51.511Z,8.27
2022-11-11T16:31:43.684Z,8.35
2022-11-11T16:34:32.140Z,8.31
2022-11-11T16:37:02.580Z,8.26
2022-11-11T16:39:29.671Z,8.33
2022-11-11T16:41:57.237Z,8.21
2022-11-11T16:44:32.580Z,8.15
2022-11-11T16:46:58.972Z,8.14
2022-11-11T16:49:37.614Z,8.13
2022-11-11T16:52:09.770Z,8.23
2022-11-11T16:54:38.512Z,8.19
2022-11-11T16:57:05.286Z,8.11
2022-11-11T16:59:41.844Z,8.07
2022-11-11T17:02:18.181Z,8.03
2022-11-11T17:04:50.226Z,7.93
2022-11-11T17:07:36.314Z,7.90
2022-11-11T17:10:08.849Z,7.93
2022-11-11T17:12:37.648Z,7.97
2022-11-11T17:15:04.832Z,8.13
2022-11-11T17:17:31.330Z,8.37
2022-11-11T17:19:58.317Z,8.31
2022-11-11T17:22:25.339Z,8.13
2022-11-11T17:24:51.725Z,8.15
2022-11-11T17:27:18.118Z,7.94
2022-11-11T17:29:44.539Z,7.90
2022-11-11T17:32:10.883Z,7.85
2022-11-11T17:34:37.323Z,7.96
2022-11-11T17:37:03.650Z,8.00
2022-11-11T17:39:30.023Z,7.98
2022-11-11T17:41:56.361Z,7.91
2022-11-11T17:44:22.924Z,7.93
2022-11-11T17:46:49.236Z,8.12
2022-11-11T17:49:29.589Z,8.18
2022-11-11T17:52:02.360Z,8.20
2022-11-11T17:54:28.863Z,8.18
2022-11-11T17:56:55.298Z,8.17
2022-11-11T17:59:21.664Z,8.23
2022-11-11T18:01:48.184Z,8.26
2022-11-11T18:04:14.712Z,7.97
2022-11-11T18:06:41.241Z,8.02
2022-11-11T18:09:07.706Z,8.04
2022-11-11T18:11:35.337Z,8.04
2022-11-11T18:14:01.999Z,7.66
2022-11-11T18:16:28.416Z,7.71
2022-11-11T18:18:59.421Z,7.63
2022-11-11T18:21:26.174Z,7.72
2022-11-11T18:23:52.570Z,7.80
2022-11-11T18:26:20.780Z,7.84
2022-11-11T18:28:47.541Z,7.83
2022-11-11T18:31:14.496Z,7.86
2022-11-11T18:33:44.830Z,7.86
2022-11-11T18:36:15.401Z,7.82
2022-11-11T18:38:42.164Z,7.83
2022-11-11T18:41:10.334Z,7.93
2022-11-11T18:43:40.809Z,7.69
2022-11-11T18:46:09.107Z,7.68
2022-11-11T18:48:35.984Z,7.84
2022-11-11T18:51:03.327Z,7.88
2022-11-11T18:53:30.829Z,7.92
2022-11-11T18:56:02.112Z,7.92
2022-11-11T18:58:29.491Z,7.94
2022-11-11T19:01:02.911Z,7.91
2022-11-11T19:03:29.362Z,7.80
2022-11-11T19:05:59.147Z,7.76
2022-11-11T19:08:25.476Z,7.68
2022-11-11T19:10:51.822Z,7.72
2022-11-11T19:13:18.273Z,7.70
2022-11-11T19:15:44.739Z,7.62
2022-11-11T19:18:11.127Z,7.67
2022-11-11T19:20:37.895Z,7.66
2022-11-11T19:23:04.344Z,7.56
2022-11-11T19:25:34.006Z,7.65
2022-11-11T19:28:00.392Z,7.60
2022-11-11T19:30:26.686Z,7.39
2022-11-11T19:32:52.999Z,7.41
2022-11-11T19:35:20.548Z,7.38
2022-11-11T19:37:46.946Z,7.35
2022-11-11T19:40:13.431Z,7.20
2022-11-11T19:42:39.823Z,7.02
2022-11-11T19:45:06.871Z,7.27
2022-11-11T19:47:33.281Z,7.36
2022-11-11T19:49:59.616Z,7.44
2022-11-11T19:52:26.038Z,7.26
2022-11-11T19:54:52.474Z,7.41
2022-11-11T19:57:18.968Z,7.42
2022-11-11T19:59:46.367Z,7.39
2022-11-11T20:02:12.687Z,7.33
2022-11-11T20:04:39.216Z,7.35
2022-11-11T20:07:05.743Z,7.43
2022-11-11T20:09:32.228Z,7.47
2022-11-11T20:11:58.615Z,7.49
2022-11-11T20:14:26.088Z,7.33
2022-11-11T20:16:52.456Z,7.43
2022-11-11T20:19:18.852Z,7.47
2022-11-11T20:21:45.346Z,7.45
2022-11-11T20:24:11.932Z,7.34
2022-11-11T20:26:38.399Z,7.51
2022-11-11T20:29:04.851Z,7.57
2022-11-11T20:31:31.195Z,7.31
2022-11-11T20:33:57.709Z,7.26
2022-11-11T20:36:24.206Z,7.25
2022-11-11T20:38:50.679Z,7.61
2022-11-11T20:41:18.009Z,7.32
2022-11-11T20:43:44.915Z,7.40
2022-11-11T20:46:13.672Z,7.34
2022-11-11T20:48:41.408Z,7.43
2022-11-11T20:51:09.379Z,7.32
2022-11-11T20:53:36.145Z,7.19
2022-11-11T20:56:03.553Z,7.15
2022-11-11T20:58:30.084Z,7.04
2022-11-11T21:01:06.578Z,7.03
2022-11-11T21:03:33.313Z,7.00
2022-11-11T21:06:06.053Z,6.95
2022-11-11T21:08:36.405Z,6.99
2022-11-11T21:11:03.461Z,7.07
2022-11-11T21:13:30.043Z,7.05
2022-11-11T21:16:08.081Z,7.17
2022-11-11T21:18:36.083Z,6.90
2022-11-11T21:21:17.089Z,6.83
2022-11-11T21:23:45.919Z,6.85
2022-11-11T21:26:16.228Z,6.90
2022-11-11T21:28:44.028Z,6.87
2022-11-11T21:31:11.954Z,6.95
2022-11-11T21:33:38.376Z,7.12
2022-11-11T21:36:06.471Z,7.03
2022-11-11T21:38:36.343Z,6.75
2022-11-11T21:41:03.810Z,6.83
2022-11-11T21:43:30.226Z,6.75
2022-11-11T21:46:01.319Z,6.81
2022-11-11T21:48:27.818Z,6.74
2022-11-11T21:50:54.168Z,6.82
2022-11-11T21:53:20.543Z,6.79
2022-11-11T21:55:47.016Z,6.67
2022-11-11T21:58:15.324Z,6.53
2022-11-11T22:00:41.719Z,6.61
2022-11-11T22:03:08.026Z,6.69
2022-11-11T22:05:34.345Z,6.46
2022-11-11T22:08:00.677Z,6.37
2022-11-11T22:10:27.078Z,6.43
2022-11-11T22:12:53.479Z,6.46
2022-11-11T22:15:20.834Z,6.49
2022-11-11T22:17:47.137Z,6.51
2022-11-11T22:20:13.504Z,6.50
2022-11-11T22:22:39.802Z,6.60
2022-11-11T22:25:06.492Z,6.65
2022-11-11T22:27:32.790Z,6.63
2022-11-11T22:29:59.136Z,6.65
2022-11-11T22:32:26.551Z,6.68
2022-11-11T22:34:53.026Z,6.71
2022-11-11T22:37:19.395Z,6.72
2022-11-11T22:39:45.702Z,6.81
2022-11-11T22:42:12.090Z,6.86
2022-11-11T22:44:38.424Z,6.77
2022-11-11T22:47:04.865Z,6.67
2022-11-11T22:49:31.247Z,6.65
2022-11-11T22:51:57.540Z,6.63
2022-11-11T22:54:25.923Z,6.73
2022-11-11T22:56:52.237Z,6.74
2022-11-11T22:59:18.564Z,6.75
2022-11-11T23:01:45.019Z,6.81
2022-11-11T23:04:14.350Z,6.61
2022-11-11T23:06:42.012Z,6.51
2022-11-11T23:09:10.010Z,6.49
2022-11-11T23:11:37.376Z,6.62
2022-11-11T23:14:05.035Z,6.75
2022-11-11T23:16:31.417Z,6.81
2022-11-11T23:19:00.479Z,6.79
2022-11-11T23:21:27.867Z,6.90
2022-11-11T23:23:54.618Z,6.81
2022-11-11T23:26:24.277Z,6.75
2022-11-11T23:28:50.670Z,6.70
2022-11-11T23:31:18.693Z,6.81
2022-11-11T23:33:46.612Z,6.88
2022-11-11T23:36:14.687Z,6.76
2022-11-11T23:38:47.873Z,6.79
2022-11-11T23:41:14.264Z,6.87
2022-11-11T23:43:42.796Z,6.82
2022-11-11T23:46:09.414Z,6.88
2022-11-11T23:48:36.048Z,6.85
2022-11-11T23:51:02.969Z,6.88
2022-11-11T23:53:29.720Z,6.90
2022-11-11T23:55:56.894Z,6.87
2022-11-11T23:58:25.140Z,6.80
